sensor_id;sensor_type;location;lat;lon;timestamp;P1;durP1;ratioP1;P2;durP2;ratioP2
7003;SDS011;3542;48.812;9.146;2023-03-04T00:01:41;41.83;;;22.47;;
7003;SDS011;3542;48.812;9.146;2023-03-04T00:04:06;51.47;;;24.50;;
7003;SDS011;3542;48.812;9.146;2023-03-04T00:06:32;52.20;;;22.63;;
7003;SDS011;3542;48.812;9.146;2023-03-04T00:08:57;48.47;;;25.30;;
7003;SDS011;3542;48.812;9.146;2023-03-04T00:11:23;45.00;;;21.80;;
7003;SDS011;3542;48.812;9.146;2023-03-04T00:13:48;49.40;;;23.87;;
7003;SDS011;3542;48.812;9.146;2023-03-04T00:16:14;52.87;;;24.47;;
7003;SDS011;3542;48.812;9.146;2023-03-04T00:18:40;47.57;;;21.93;;
7003;SDS011;3542;48.812;9.146;2023-03-04T00:21:05;52.30;;;25.37;;
7003;SDS011;3542;48.812;9.146;2023-03-04T00:23:31;51.03;;;23.23;;
7003;SDS011;3542;48.812;9.146;2023-03-04T00:25:56;43.80;;;22.53;;
7003;SDS011;3542;48.812;9.146;2023-03-04T00:28:22;43.37;;;20.30;;
7003;SDS011;3542;48.812;9.146;2023-03-04T00:30:48;44.77;;;21.33;;
7003;SDS011;3542;48.812;9.146;2023-03-04T00:33:13;59.67;;;23.60;;
7003;SDS011;3542;48.812;9.146;2023-03-04T00:35:39;46.90;;;23.90;;
7003;SDS011;3542;48.812;9.146;2023-03-04T00:38:05;44.20;;;23.50;;
7003;SDS011;3542;48.812;9.146;2023-03-04T00:40:30;47.80;;;22.13;;
7003;SDS011;3542;48.812;9.146;2023-03-04T00:42:56;45.43;;;23.27;;
7003;SDS011;3542;48.812;9.146;2023-03-04T00:45:21;49.97;;;22.20;;
7003;SDS011;3542;48.812;9.146;2023-03-04T00:47:47;43.97;;;22.20;;
7003;SDS011;3542;48.812;9.146;2023-03-04T00:50:12;47.47;;;23.53;;
7003;SDS011;3542;48.812;9.146;2023-03-04T00:52:38;47.80;;;24.00;;
7003;SDS011;3542;48.812;9.146;2023-03-04T00:55:04;49.27;;;22.17;;
7003;SDS011;3542;48.812;9.146;2023-03-04T00:57:31;37.03;;;19.33;;
7003;SDS011;3542;48.812;9.146;2023-03-04T00:59:56;44.83;;;21.90;;
7003;SDS011;3542;48.812;9.146;2023-03-04T01:02:22;48.80;;;22.70;;
7003;SDS011;3542;48.812;9.146;2023-03-04T01:04:47;43.83;;;21.70;;
7003;SDS011;3542;48.812;9.146;2023-03-04T01:07:13;44.53;;;22.13;;
7003;SDS011;3542;48.812;9.146;2023-03-04T01:09:38;38.33;;;20.43;;
7003;SDS011;3542;48.812;9.146;2023-03-04T01:12:04;46.17;;;22.10;;
7003;SDS011;3542;48.812;9.146;2023-03-04T01:14:29;43.80;;;21.87;;
7003;SDS011;3542;48.812;9.146;2023-03-04T01:16:55;48.63;;;21.90;;
7003;SDS011;3542;48.812;9.146;2023-03-04T01:19:20;39.30;;;20.47;;
7003;SDS011;3542;48.812;9.146;2023-03-04T01:21:46;45.30;;;23.23;;
7003;SDS011;3542;48.812;9.146;2023-03-04T01:24:11;41.47;;;19.50;;
7003;SDS011;3542;48.812;9.146;2023-03-04T01:26:37;46.17;;;20.60;;
7003;SDS011;3542;48.812;9.146;2023-03-04T01:29:02;40.37;;;21.70;;
7003;SDS011;3542;48.812;9.146;2023-03-04T01:31:28;41.60;;;22.53;;
7003;SDS011;3542;48.812;9.146;2023-03-04T01:33:53;44.17;;;21.27;;
7003;SDS011;3542;48.812;9.146;2023-03-04T01:36:19;47.83;;;21.60;;
7003;SDS011;3542;48.812;9.146;2023-03-04T01:38:45;46.87;;;23.23;;
7003;SDS011;3542;48.812;9.146;2023-03-04T01:41:11;47.67;;;22.50;;
7003;SDS011;3542;48.812;9.146;2023-03-04T01:43:37;44.73;;;24.53;;
7003;SDS011;3542;48.812;9.146;2023-03-04T01:46:03;53.50;;;24.87;;
7003;SDS011;3542;48.812;9.146;2023-03-04T01:48:30;50.30;;;24.23;;
7003;SDS011;3542;48.812;9.146;2023-03-04T01:51:02;48.17;;;23.00;;
7003;SDS011;3542;48.812;9.146;2023-03-04T01:53:29;53.03;;;23.90;;
7003;SDS011;3542;48.812;9.146;2023-03-04T01:55:56;61.80;;;22.90;;
7003;SDS011;3542;48.812;9.146;2023-03-04T01:58:27;48.47;;;23.63;;
7003;SDS011;3542;48.812;9.146;2023-03-04T03:31:31;36.20;;;18.23;;
7003;SDS011;3542;48.812;9.146;2023-03-04T03:33:57;38.17;;;20.43;;
7003;SDS011;3542;48.812;9.146;2023-03-04T03:36:22;47.27;;;19.90;;
7003;SDS011;3542;48.812;9.146;2023-03-04T03:38:48;42.77;;;20.00;;
7003;SDS011;3542;48.812;9.146;2023-03-04T03:41:13;44.03;;;20.70;;
7003;SDS011;3542;48.812;9.146;2023-03-04T03:43:39;41.37;;;20.03;;
7003;SDS011;3542;48.812;9.146;2023-03-04T03:46:04;48.77;;;19.97;;
7003;SDS011;3542;48.812;9.146;2023-03-04T03:48:30;45.33;;;22.20;;
7003;SDS011;3542;48.812;9.146;2023-03-04T03:50:55;38.63;;;20.30;;
7003;SDS011;3542;48.812;9.146;2023-03-04T03:53:21;37.53;;;19.77;;
7003;SDS011;3542;48.812;9.146;2023-03-04T03:55:46;38.27;;;19.40;;
7003;SDS011;3542;48.812;9.146;2023-03-04T03:58:12;38.63;;;18.10;;
7003;SDS011;3542;48.812;9.146;2023-03-04T04:00:38;39.23;;;18.70;;
7003;SDS011;3542;48.812;9.146;2023-03-04T04:03:03;40.47;;;19.67;;
7003;SDS011;3542;48.812;9.146;2023-03-04T04:05:29;37.70;;;18.87;;
7003;SDS011;3542;48.812;9.146;2023-03-04T04:07:55;42.03;;;19.87;;
7003;SDS011;3542;48.812;9.146;2023-03-04T04:10:20;33.93;;;19.00;;
7003;SDS011;3542;48.812;9.146;2023-03-04T04:12:46;39.90;;;20.57;;
7003;SDS011;3542;48.812;9.146;2023-03-04T04:15:11;37.33;;;18.50;;
7003;SDS011;3542;48.812;9.146;2023-03-04T04:17:37;41.63;;;19.63;;
7003;SDS011;3542;48.812;9.146;2023-03-04T04:20:04;39.10;;;19.77;;
7003;SDS011;3542;48.812;9.146;2023-03-04T04:22:30;41.07;;;20.37;;
7003;SDS011;3542;48.812;9.146;2023-03-04T04:24:56;34.70;;;18.87;;
7003;SDS011;3542;48.812;9.146;2023-03-04T04:27:21;38.10;;;18.77;;
7003;SDS011;3542;48.812;9.146;2023-03-04T04:29:47;43.80;;;20.47;;
7003;SDS011;3542;48.812;9.146;2023-03-04T04:32:12;37.70;;;19.13;;
7003;SDS011;3542;48.812;9.146;2023-03-04T04:34:38;37.93;;;18.43;;
7003;SDS011;3542;48.812;9.146;2023-03-04T04:37:03;43.80;;;20.20;;
7003;SDS011;3542;48.812;9.146;2023-03-04T04:39:29;40.70;;;18.53;;
7003;SDS011;3542;48.812;9.146;2023-03-04T04:41:54;42.63;;;19.43;;
7003;SDS011;3542;48.812;9.146;2023-03-04T04:44:20;35.70;;;20.03;;
7003;SDS011;3542;48.812;9.146;2023-03-04T04:46:45;48.73;;;22.17;;
7003;SDS011;3542;48.812;9.146;2023-03-04T04:49:11;34.70;;;18.83;;
7003;SDS011;3542;48.812;9.146;2023-03-04T04:51:37;38.00;;;19.80;;
7003;SDS011;3542;48.812;9.146;2023-03-04T04:54:03;38.70;;;20.07;;
7003;SDS011;3542;48.812;9.146;2023-03-04T04:56:29;41.03;;;20.73;;
7003;SDS011;3542;48.812;9.146;2023-03-04T04:58:56;42.23;;;19.70;;
7003;SDS011;3542;48.812;9.146;2023-03-04T05:01:23;40.20;;;19.70;;
7003;SDS011;3542;48.812;9.146;2023-03-04T05:03:50;36.73;;;18.57;;
7003;SDS011;3542;48.812;9.146;2023-03-04T05:06:19;35.53;;;18.77;;
7003;SDS011;3542;48.812;9.146;2023-03-04T05:08:46;41.10;;;19.23;;
7003;SDS011;3542;48.812;9.146;2023-03-04T05:11:12;37.60;;;19.47;;
7003;SDS011;3542;48.812;9.146;2023-03-04T05:13:38;38.03;;;18.53;;
7003;SDS011;3542;48.812;9.146;2023-03-04T05:16:04;43.77;;;21.13;;
7003;SDS011;3542;48.812;9.146;2023-03-04T05:18:30;42.17;;;19.70;;
7003;SDS011;3542;48.812;9.146;2023-03-04T05:20:56;44.40;;;20.70;;
7003;SDS011;3542;48.812;9.146;2023-03-04T05:23:24;35.07;;;20.07;;
7003;SDS011;3542;48.812;9.146;2023-03-04T05:25:51;48.30;;;21.23;;
7003;SDS011;3542;48.812;9.146;2023-03-04T05:28:17;44.43;;;19.87;;
7003;SDS011;3542;48.812;9.146;2023-03-04T05:30:43;50.30;;;21.67;;
7003;SDS011;3542;48.812;9.146;2023-03-04T05:33:11;42.80;;;20.13;;
7003;SDS011;3542;48.812;9.146;2023-03-04T05:35:38;41.23;;;19.90;;
7003;SDS011;3542;48.812;9.146;2023-03-04T05:38:05;35.77;;;18.97;;
7003;SDS011;3542;48.812;9.146;2023-03-04T05:40:33;40.17;;;19.50;;
7003;SDS011;3542;48.812;9.146;2023-03-04T05:42:59;45.70;;;20.20;;
7003;SDS011;3542;48.812;9.146;2023-03-04T05:45:24;31.93;;;18.13;;
7003;SDS011;3542;48.812;9.146;2023-03-04T05:47:51;43.40;;;19.73;;
7003;SDS011;3542;48.812;9.146;2023-03-04T05:50:17;36.83;;;20.03;;
7003;SDS011;3542;48.812;9.146;2023-03-04T05:52:43;39.13;;;19.17;;
7003;SDS011;3542;48.812;9.146;2023-03-04T05:55:08;43.83;;;19.43;;
7003;SDS011;3542;48.812;9.146;2023-03-04T05:57:34;48.97;;;21.67;;
7003;SDS011;3542;48.812;9.146;2023-03-04T06:00:00;45.70;;;19.27;;
7003;SDS011;3542;48.812;9.146;2023-03-04T06:02:26;42.20;;;18.60;;
7003;SDS011;3542;48.812;9.146;2023-03-04T06:04:51;41.00;;;18.23;;
7003;SDS011;3542;48.812;9.146;2023-03-04T06:07:17;38.43;;;20.07;;
7003;SDS011;3542;48.812;9.146;2023-03-04T06:09:42;46.63;;;20.20;;
7003;SDS011;3542;48.812;9.146;2023-03-04T06:12:09;41.83;;;18.20;;
7003;SDS011;3542;48.812;9.146;2023-03-04T06:14:35;40.53;;;19.60;;
7003;SDS011;3542;48.812;9.146;2023-03-04T06:17:01;43.03;;;18.50;;
7003;SDS011;3542;48.812;9.146;2023-03-04T06:19:26;42.23;;;20.20;;
7003;SDS011;3542;48.812;9.146;2023-03-04T06:21:52;44.70;;;18.83;;
7003;SDS011;3542;48.812;9.146;2023-03-04T06:24:17;37.20;;;19.03;;
7003;SDS011;3542;48.812;9.146;2023-03-04T06:26:43;43.53;;;18.47;;
7003;SDS011;3542;48.812;9.146;2023-03-04T06:29:08;41.27;;;19.73;;
7003;SDS011;3542;48.812;9.146;2023-03-04T06:31:34;44.30;;;21.37;;
7003;SDS011;3542;48.812;9.146;2023-03-04T06:33:59;41.77;;;21.23;;
7003;SDS011;3542;48.812;9.146;2023-03-04T06:36:25;39.00;;;19.13;;
7003;SDS011;3542;48.812;9.146;2023-03-04T06:38:50;46.17;;;19.10;;
7003;SDS011;3542;48.812;9.146;2023-03-04T06:41:16;36.70;;;18.23;;
7003;SDS011;3542;48.812;9.146;2023-03-04T06:43:42;39.07;;;18.37;;
7003;SDS011;3542;48.812;9.146;2023-03-04T06:46:07;38.83;;;19.63;;
7003;SDS011;3542;48.812;9.146;2023-03-04T06:48:33;39.47;;;19.70;;
7003;SDS011;3542;48.812;9.146;2023-03-04T06:51:06;38.97;;;20.20;;
7003;SDS011;3542;48.812;9.146;2023-03-04T06:53:32;35.70;;;19.17;;
7003;SDS011;3542;48.812;9.146;2023-03-04T06:55:58;49.80;;;20.93;;
7003;SDS011;3542;48.812;9.146;2023-03-04T06:58:24;51.30;;;21.83;;
7003;SDS011;3542;48.812;9.146;2023-03-04T07:00:49;39.37;;;19.73;;
7003;SDS011;3542;48.812;9.146;2023-03-04T07:03:15;45.23;;;21.77;;
7003;SDS011;3542;48.812;9.146;2023-03-04T07:05:41;42.83;;;20.13;;
7003;SDS011;3542;48.812;9.146;2023-03-04T07:08:07;46.93;;;20.57;;
7003;SDS011;3542;48.812;9.146;2023-03-04T07:10:33;45.80;;;21.40;;
7003;SDS011;3542;48.812;9.146;2023-03-04T07:12:59;46.30;;;21.23;;
7003;SDS011;3542;48.812;9.146;2023-03-04T07:15:25;48.87;;;23.67;;
7003;SDS011;3542;48.812;9.146;2023-03-04T07:17:50;44.03;;;20.40;;
7003;SDS011;3542;48.812;9.146;2023-03-04T07:20:16;47.97;;;21.50;;
7003;SDS011;3542;48.812;9.146;2023-03-04T07:22:42;49.70;;;24.50;;
7003;SDS011;3542;48.812;9.146;2023-03-04T07:25:08;45.40;;;20.90;;
7003;SDS011;3542;48.812;9.146;2023-03-04T07:27:33;50.13;;;21.97;;
7003;SDS011;3542;48.812;9.146;2023-03-04T07:29:59;48.93;;;22.00;;
7003;SDS011;3542;48.812;9.146;2023-03-04T07:32:24;43.33;;;20.60;;
7003;SDS011;3542;48.812;9.146;2023-03-04T07:34:50;44.60;;;21.50;;
7003;SDS011;3542;48.812;9.146;2023-03-04T07:37:15;42.20;;;20.80;;
7003;SDS011;3542;48.812;9.146;2023-03-04T07:39:41;45.20;;;19.83;;
7003;SDS011;3542;48.812;9.146;2023-03-04T07:42:06;46.07;;;19.07;;
7003;SDS011;3542;48.812;9.146;2023-03-04T07:44:32;46.07;;;19.50;;
7003;SDS011;3542;48.812;9.146;2023-03-04T07:46:57;47.50;;;18.93;;
7003;SDS011;3542;48.812;9.146;2023-03-04T07:49:23;35.10;;;18.37;;
7003;SDS011;3542;48.812;9.146;2023-03-04T07:51:48;40.23;;;17.20;;
7003;SDS011;3542;48.812;9.146;2023-03-04T07:54:14;32.37;;;17.90;;
7003;SDS011;3542;48.812;9.146;2023-03-04T07:56:39;37.27;;;16.30;;
7003;SDS011;3542;48.812;9.146;2023-03-04T07:59:05;39.60;;;17.53;;
7003;SDS011;3542;48.812;9.146;2023-03-04T08:01:34;30.93;;;17.37;;
7003;SDS011;3542;48.812;9.146;2023-03-04T08:04:01;34.67;;;16.03;;
7003;SDS011;3542;48.812;9.146;2023-03-04T08:06:28;44.53;;;17.67;;
7003;SDS011;3542;48.812;9.146;2023-03-04T08:08:58;32.73;;;16.97;;
7003;SDS011;3542;48.812;9.146;2023-03-04T08:11:25;33.23;;;16.97;;
7003;SDS011;3542;48.812;9.146;2023-03-04T08:13:53;36.27;;;17.60;;
7003;SDS011;3542;48.812;9.146;2023-03-04T08:16:19;40.93;;;16.90;;
7003;SDS011;3542;48.812;9.146;2023-03-04T08:18:48;31.57;;;16.43;;
7003;SDS011;3542;48.812;9.146;2023-03-04T08:21:16;42.27;;;18.17;;
7003;SDS011;3542;48.812;9.146;2023-03-04T08:23:45;34.87;;;17.57;;
7003;SDS011;3542;48.812;9.146;2023-03-04T08:26:13;34.70;;;17.07;;
7003;SDS011;3542;48.812;9.146;2023-03-04T08:28:40;39.60;;;19.50;;
7003;SDS011;3542;48.812;9.146;2023-03-04T08:31:06;40.10;;;18.63;;
7003;SDS011;3542;48.812;9.146;2023-03-04T08:33:32;43.60;;;21.13;;
7003;SDS011;3542;48.812;9.146;2023-03-04T08:35:58;36.57;;;18.13;;
7003;SDS011;3542;48.812;9.146;2023-03-04T08:38:24;35.80;;;18.67;;
7003;SDS011;3542;48.812;9.146;2023-03-04T08:40:53;37.57;;;18.70;;
7003;SDS011;3542;48.812;9.146;2023-03-04T08:43:19;44.57;;;19.47;;
7003;SDS011;3542;48.812;9.146;2023-03-04T08:45:46;39.60;;;18.53;;
7003;SDS011;3542;48.812;9.146;2023-03-04T08:48:11;39.63;;;18.53;;
7003;SDS011;3542;48.812;9.146;2023-03-04T08:50:37;36.60;;;18.40;;
7003;SDS011;3542;48.812;9.146;2023-03-04T08:53:02;41.33;;;18.63;;
7003;SDS011;3542;48.812;9.146;2023-03-04T08:55:28;39.03;;;18.27;;
7003;SDS011;3542;48.812;9.146;2023-03-04T08:57:53;40.00;;;19.77;;
7003;SDS011;3542;48.812;9.146;2023-03-04T09:00:19;34.70;;;16.90;;
7003;SDS011;3542;48.812;9.146;2023-03-04T09:02:46;38.10;;;17.53;;
7003;SDS011;3542;48.812;9.146;2023-03-04T09:05:11;36.60;;;18.00;;
7003;SDS011;3542;48.812;9.146;2023-03-04T09:07:37;37.80;;;22.00;;
7003;SDS011;3542;48.812;9.146;2023-03-04T09:10:03;38.10;;;20.03;;
7003;SDS011;3542;48.812;9.146;2023-03-04T09:12:29;36.10;;;17.97;;
7003;SDS011;3542;48.812;9.146;2023-03-04T09:14:54;37.67;;;18.37;;
7003;SDS011;3542;48.812;9.146;2023-03-04T09:17:20;37.00;;;18.60;;
7003;SDS011;3542;48.812;9.146;2023-03-04T09:19:45;34.83;;;16.90;;
7003;SDS011;3542;48.812;9.146;2023-03-04T09:22:11;32.83;;;18.10;;
7003;SDS011;3542;48.812;9.146;2023-03-04T09:24:36;36.87;;;18.63;;
7003;SDS011;3542;48.812;9.146;2023-03-04T09:27:02;34.90;;;16.90;;
7003;SDS011;3542;48.812;9.146;2023-03-04T09:29:27;36.60;;;17.57;;
7003;SDS011;3542;48.812;9.146;2023-03-04T09:31:53;34.53;;;18.70;;
7003;SDS011;3542;48.812;9.146;2023-03-04T09:34:18;36.60;;;17.50;;
7003;SDS011;3542;48.812;9.146;2023-03-04T09:36:44;37.10;;;18.67;;
7003;SDS011;3542;48.812;9.146;2023-03-04T09:39:09;35.00;;;17.10;;
7003;SDS011;3542;48.812;9.146;2023-03-04T09:41:57;34.50;;;17.67;;
7003;SDS011;3542;48.812;9.146;2023-03-04T09:46:51;28.60;;;16.43;;
7003;SDS011;3542;48.812;9.146;2023-03-04T09:49:19;37.83;;;17.87;;
7003;SDS011;3542;48.812;9.146;2023-03-04T09:54:34;38.00;;;20.37;;
7003;SDS011;3542;48.812;9.146;2023-03-04T09:57:19;38.93;;;18.23;;
7003;SDS011;3542;48.812;9.146;2023-03-04T09:59:51;32.37;;;18.50;;
7003;SDS011;3542;48.812;9.146;2023-03-04T10:03:14;37.43;;;19.73;;
7003;SDS011;3542;48.812;9.146;2023-03-04T10:05:47;34.50;;;17.70;;
7003;SDS011;3542;48.812;9.146;2023-03-04T10:08:20;32.87;;;17.60;;
7003;SDS011;3542;48.812;9.146;2023-03-04T10:10:53;31.00;;;17.70;;
7003;SDS011;3542;48.812;9.146;2023-03-04T10:13:24;32.60;;;17.83;;
7003;SDS011;3542;48.812;9.146;2023-03-04T10:15:57;35.30;;;19.10;;
7003;SDS011;3542;48.812;9.146;2023-03-04T10:18:33;43.60;;;20.60;;
7003;SDS011;3542;48.812;9.146;2023-03-04T10:21:05;32.20;;;18.60;;
7003;SDS011;3542;48.812;9.146;2023-03-04T10:23:38;33.87;;;20.10;;
7003;SDS011;3542;48.812;9.146;2023-03-04T10:26:13;54.53;;;28.23;;
7003;SDS011;3542;48.812;9.146;2023-03-04T10:28:41;32.77;;;19.23;;
7003;SDS011;3542;48.812;9.146;2023-03-04T10:33:34;34.37;;;18.80;;
7003;SDS011;3542;48.812;9.146;2023-03-04T10:36:05;40.43;;;20.90;;
7003;SDS011;3542;48.812;9.146;2023-03-04T10:38:38;35.00;;;21.00;;
7003;SDS011;3542;48.812;9.146;2023-03-04T10:41:13;41.53;;;22.50;;
7003;SDS011;3542;48.812;9.146;2023-03-04T10:43:41;39.40;;;20.70;;
7003;SDS011;3542;48.812;9.146;2023-03-04T10:46:10;47.97;;;25.27;;
7003;SDS011;3542;48.812;9.146;2023-03-04T10:48:37;42.30;;;22.90;;
7003;SDS011;3542;48.812;9.146;2023-03-04T10:53:44;46.30;;;24.20;;
7003;SDS011;3542;48.812;9.146;2023-03-04T10:56:29;41.87;;;22.03;;
7003;SDS011;3542;48.812;9.146;2023-03-04T10:59:22;43.60;;;24.00;;
7003;SDS011;3542;48.812;9.146;2023-03-04T11:02:19;49.67;;;25.17;;
7003;SDS011;3542;48.812;9.146;2023-03-04T11:04:54;55.20;;;24.43;;
7003;SDS011;3542;48.812;9.146;2023-03-04T11:07:29;44.77;;;26.87;;
7003;SDS011;3542;48.812;9.146;2023-03-04T11:09:55;51.40;;;28.30;;
7003;SDS011;3542;48.812;9.146;2023-03-04T11:15:25;46.80;;;24.80;;
7003;SDS011;3542;48.812;9.146;2023-03-04T11:17:53;54.97;;;27.20;;
7003;SDS011;3542;48.812;9.146;2023-03-04T11:23:05;50.27;;;25.90;;
7003;SDS011;3542;48.812;9.146;2023-03-04T11:25:41;44.70;;;25.60;;
7003;SDS011;3542;48.812;9.146;2023-03-04T11:28:12;53.57;;;26.10;;
7003;SDS011;3542;48.812;9.146;2023-03-04T11:30:47;50.50;;;26.97;;
7003;SDS011;3542;48.812;9.146;2023-03-04T11:39:38;52.27;;;27.60;;
7003;SDS011;3542;48.812;9.146;2023-03-04T11:45:13;55.53;;;28.60;;
7003;SDS011;3542;48.812;9.146;2023-03-04T11:55:45;59.73;;;29.63;;
7003;SDS011;3542;48.812;9.146;2023-03-04T11:58:52;50.43;;;27.17;;
7003;SDS011;3542;48.812;9.146;2023-03-04T12:09:23;56.97;;;29.97;;
7003;SDS011;3542;48.812;9.146;2023-03-04T12:15:08;51.37;;;26.77;;
7003;SDS011;3542;48.812;9.146;2023-03-04T12:20:34;54.53;;;28.00;;
7003;SDS011;3542;48.812;9.146;2023-03-04T12:45:17;53.43;;;29.60;;
7003;SDS011;3542;48.812;9.146;2023-03-04T12:50:30;59.97;;;28.73;;
7003;SDS011;3542;48.812;9.146;2023-03-04T12:53:36;62.93;;;31.67;;
7003;SDS011;3542;48.812;9.146;2023-03-04T12:59:16;59.30;;;29.23;;
7003;SDS011;3542;48.812;9.146;2023-03-04T13:10:06;62.83;;;28.63;;
7003;SDS011;3542;48.812;9.146;2023-03-04T13:12:45;59.63;;;28.73;;
7003;SDS011;3542;48.812;9.146;2023-03-04T13:15:24;61.77;;;28.90;;
7003;SDS011;3542;48.812;9.146;2023-03-04T13:20:41;61.50;;;26.13;;
7003;SDS011;3542;48.812;9.146;2023-03-04T13:38:20;43.07;;;23.97;;
7003;SDS011;3542;48.812;9.146;2023-03-04T13:54:20;37.90;;;15.50;;
7003;SDS011;3542;48.812;9.146;2023-03-04T13:59:40;31.70;;;17.07;;
7003;SDS011;3542;48.812;9.146;2023-03-04T14:02:15;31.83;;;16.30;;
7003;SDS011;3542;48.812;9.146;2023-03-04T14:07:28;40.60;;;17.50;;
7003;SDS011;3542;48.812;9.146;2023-03-04T14:10:03;30.90;;;15.77;;
7003;SDS011;3542;48.812;9.146;2023-03-04T14:12:30;35.20;;;16.83;;
7003;SDS011;3542;48.812;9.146;2023-03-04T14:15:47;34.07;;;15.50;;
7003;SDS011;3542;48.812;9.146;2023-03-04T14:17:52;39.00;;;15.90;;
7003;SDS011;3542;48.812;9.146;2023-03-04T14:23:00;31.47;;;14.53;;
7003;SDS011;3542;48.812;9.146;2023-03-04T14:25:30;40.10;;;16.30;;
7003;SDS011;3542;48.812;9.146;2023-03-04T14:28:16;36.20;;;15.70;;
7003;SDS011;3542;48.812;9.146;2023-03-04T14:30:50;37.27;;;15.53;;
7003;SDS011;3542;48.812;9.146;2023-03-04T14:33:18;33.93;;;15.00;;
7003;SDS011;3542;48.812;9.146;2023-03-04T14:35:54;41.93;;;17.03;;
7003;SDS011;3542;48.812;9.146;2023-03-04T14:38:34;40.23;;;15.97;;
7003;SDS011;3542;48.812;9.146;2023-03-04T14:41:24;32.90;;;17.10;;
7003;SDS011;3542;48.812;9.146;2023-03-04T14:44:10;35.57;;;17.30;;
7003;SDS011;3542;48.812;9.146;2023-03-04T14:46:51;43.07;;;17.80;;
7003;SDS011;3542;48.812;9.146;2023-03-04T14:49:20;33.97;;;16.33;;
7003;SDS011;3542;48.812;9.146;2023-03-04T14:51:47;38.77;;;17.80;;
7003;SDS011;3542;48.812;9.146;2023-03-04T14:57:27;39.13;;;16.93;;
7003;SDS011;3542;48.812;9.146;2023-03-04T15:00:12;47.13;;;17.97;;
7003;SDS011;3542;48.812;9.146;2023-03-04T15:03:02;39.67;;;16.97;;
7003;SDS011;3542;48.812;9.146;2023-03-04T15:05:34;30.97;;;16.33;;
7003;SDS011;3542;48.812;9.146;2023-03-04T15:08:04;41.37;;;19.20;;
7003;SDS011;3542;48.812;9.146;2023-03-04T15:10:42;34.30;;;17.10;;
7003;SDS011;3542;48.812;9.146;2023-03-04T15:13:44;42.40;;;17.73;;
7003;SDS011;3542;48.812;9.146;2023-03-04T15:16:13;37.40;;;18.87;;
7003;SDS011;3542;48.812;9.146;2023-03-04T15:19:02;43.83;;;18.13;;
7003;SDS011;3542;48.812;9.146;2023-03-04T15:24:00;31.17;;;16.43;;
7003;SDS011;3542;48.812;9.146;2023-03-04T15:26:27;35.37;;;18.17;;
7003;SDS011;3542;48.812;9.146;2023-03-04T15:28:54;44.67;;;17.30;;
7003;SDS011;3542;48.812;9.146;2023-03-04T15:31:21;33.80;;;16.00;;
7003;SDS011;3542;48.812;9.146;2023-03-04T15:33:48;35.80;;;15.93;;
7003;SDS011;3542;48.812;9.146;2023-03-04T15:36:15;36.03;;;18.17;;
7003;SDS011;3542;48.812;9.146;2023-03-04T15:38:46;39.40;;;16.97;;
7003;SDS011;3542;48.812;9.146;2023-03-04T15:41:16;37.67;;;18.03;;
7003;SDS011;3542;48.812;9.146;2023-03-04T15:43:47;41.03;;;21.30;;
7003;SDS011;3542;48.812;9.146;2023-03-04T15:46:12;36.80;;;18.57;;
7003;SDS011;3542;48.812;9.146;2023-03-04T15:48:38;40.83;;;17.30;;
7003;SDS011;3542;48.812;9.146;2023-03-04T15:51:05;40.17;;;17.90;;
7003;SDS011;3542;48.812;9.146;2023-03-04T15:53:41;39.73;;;20.20;;
7003;SDS011;3542;48.812;9.146;2023-03-04T15:56:13;32.57;;;17.23;;
7003;SDS011;3542;48.812;9.146;2023-03-04T15:58:42;32.93;;;17.43;;
7003;SDS011;3542;48.812;9.146;2023-03-04T16:01:12;39.13;;;17.30;;
7003;SDS011;3542;48.812;9.146;2023-03-04T16:03:40;34.03;;;16.50;;
7003;SDS011;3542;48.812;9.146;2023-03-04T16:06:09;44.17;;;21.10;;
7003;SDS011;3542;48.812;9.146;2023-03-04T16:08:37;39.60;;;19.27;;
7003;SDS011;3542;48.812;9.146;2023-03-04T16:11:03;37.27;;;17.40;;
7003;SDS011;3542;48.812;9.146;2023-03-04T16:13:29;40.07;;;18.13;;
7003;SDS011;3542;48.812;9.146;2023-03-04T16:15:55;42.10;;;18.10;;
7003;SDS011;3542;48.812;9.146;2023-03-04T16:18:20;55.93;;;18.43;;
7003;SDS011;3542;48.812;9.146;2023-03-04T16:20:47;38.60;;;16.33;;
7003;SDS011;3542;48.812;9.146;2023-03-04T16:23:21;41.23;;;19.17;;
7003;SDS011;3542;48.812;9.146;2023-03-04T16:25:49;44.13;;;17.77;;
7003;SDS011;3542;48.812;9.146;2023-03-04T16:28:17;40.00;;;17.70;;
7003;SDS011;3542;48.812;9.146;2023-03-04T16:30:43;42.00;;;19.30;;
7003;SDS011;3542;48.812;9.146;2023-03-04T16:33:08;45.50;;;19.03;;
7003;SDS011;3542;48.812;9.146;2023-03-04T16:35:35;33.73;;;16.10;;
7003;SDS011;3542;48.812;9.146;2023-03-04T16:38:03;46.43;;;19.97;;
7003;SDS011;3542;48.812;9.146;2023-03-04T16:40:30;42.37;;;19.53;;
7003;SDS011;3542;48.812;9.146;2023-03-04T16:42:55;47.60;;;20.60;;
7003;SDS011;3542;48.812;9.146;2023-03-04T16:45:22;48.00;;;20.30;;
7003;SDS011;3542;48.812;9.146;2023-03-04T16:47:49;39.20;;;18.53;;
7003;SDS011;3542;48.812;9.146;2023-03-04T16:50:17;40.90;;;19.47;;
7003;SDS011;3542;48.812;9.146;2023-03-04T16:52:45;33.63;;;17.83;;
7003;SDS011;3542;48.812;9.146;2023-03-04T16:55:20;72.57;;;21.53;;
7003;SDS011;3542;48.812;9.146;2023-03-04T16:57:50;38.87;;;19.33;;
7003;SDS011;3542;48.812;9.146;2023-03-04T17:00:16;40.70;;;19.00;;
7003;SDS011;3542;48.812;9.146;2023-03-04T17:02:44;44.17;;;19.50;;
7003;SDS011;3542;48.812;9.146;2023-03-04T17:05:17;54.63;;;21.03;;
7003;SDS011;3542;48.812;9.146;2023-03-04T17:07:44;56.00;;;20.30;;
7003;SDS011;3542;48.812;9.146;2023-03-04T17:10:10;50.53;;;22.33;;
7003;SDS011;3542;48.812;9.146;2023-03-04T17:12:36;42.07;;;20.30;;
7003;SDS011;3542;48.812;9.146;2023-03-04T17:15:02;56.07;;;21.30;;
7003;SDS011;3542;48.812;9.146;2023-03-04T17:17:28;44.07;;;19.33;;
7003;SDS011;3542;48.812;9.146;2023-03-04T17:19:54;51.03;;;21.30;;
7003;SDS011;3542;48.812;9.146;2023-03-04T17:22:20;46.17;;;21.30;;
7003;SDS011;3542;48.812;9.146;2023-03-04T17:24:46;52.80;;;21.10;;
7003;SDS011;3542;48.812;9.146;2023-03-04T17:27:12;55.53;;;20.73;;
7003;SDS011;3542;48.812;9.146;2023-03-04T17:29:37;47.93;;;20.13;;
7003;SDS011;3542;48.812;9.146;2023-03-04T17:32:03;38.97;;;19.63;;
7003;SDS011;3542;48.812;9.146;2023-03-04T17:34:28;46.83;;;20.67;;
7003;SDS011;3542;48.812;9.146;2023-03-04T17:36:54;46.20;;;19.40;;
7003;SDS011;3542;48.812;9.146;2023-03-04T17:39:19;42.83;;;20.00;;
7003;SDS011;3542;48.812;9.146;2023-03-04T17:41:45;37.50;;;19.00;;
7003;SDS011;3542;48.812;9.146;2023-03-04T17:44:14;45.30;;;19.90;;
7003;SDS011;3542;48.812;9.146;2023-03-04T17:46:39;41.27;;;21.30;;
7003;SDS011;3542;48.812;9.146;2023-03-04T17:49:05;44.63;;;18.80;;
7003;SDS011;3542;48.812;9.146;2023-03-04T17:51:31;42.93;;;18.90;;
7003;SDS011;3542;48.812;9.146;2023-03-04T17:53:58;37.83;;;18.30;;
7003;SDS011;3542;48.812;9.146;2023-03-04T17:56:25;38.23;;;19.23;;
7003;SDS011;3542;48.812;9.146;2023-03-04T17:58:54;42.07;;;21.50;;
7003;SDS011;3542;48.812;9.146;2023-03-04T18:01:20;36.10;;;19.30;;
7003;SDS011;3542;48.812;9.146;2023-03-04T18:03:46;46.53;;;19.10;;
7003;SDS011;3542;48.812;9.146;2023-03-04T18:06:12;45.07;;;21.63;;
7003;SDS011;3542;48.812;9.146;2023-03-04T18:08:38;41.47;;;19.00;;
7003;SDS011;3542;48.812;9.146;2023-03-04T18:11:04;37.90;;;20.37;;
7003;SDS011;3542;48.812;9.146;2023-03-04T18:13:30;44.00;;;19.43;;
7003;SDS011;3542;48.812;9.146;2023-03-04T18:15:55;39.57;;;17.63;;
7003;SDS011;3542;48.812;9.146;2023-03-04T18:18:22;48.67;;;21.17;;
7003;SDS011;3542;48.812;9.146;2023-03-04T18:20:48;29.30;;;15.83;;
7003;SDS011;3542;48.812;9.146;2023-03-04T18:23:13;32.47;;;16.70;;
7003;SDS011;3542;48.812;9.146;2023-03-04T18:25:39;33.27;;;17.87;;
7003;SDS011;3542;48.812;9.146;2023-03-04T18:28:05;40.47;;;18.80;;
7003;SDS011;3542;48.812;9.146;2023-03-04T18:30:31;53.07;;;26.53;;
7003;SDS011;3542;48.812;9.146;2023-03-04T18:32:56;50.90;;;20.93;;
7003;SDS011;3542;48.812;9.146;2023-03-04T18:35:23;48.73;;;18.73;;